Munson, PA

11:05 PM EDT on May 06, 2015 (GMT -0400)
South Philipsburg | | Change Station
CLOSE
Current Station
Personal Weather Station
Location: Philipsburg, PA
Elevation: 1444 ft
Nearby Weather Stations

Elev 1444 ft 40.89 °N, 78.22 °W | Updated 5 minutes ago

Overcast
Overcast
55.1 °F
Feels Like 55.1 °F
N
0.0
Wind Variable Wind from SE
Gusts 0.0 mph

Today
High -- | Low -- °F
--% Chance of Precip.
Yesterday
High -- | Low -- °F
Precip. -- in
6:04 AM 8:14 PM
Waning Gibbous, 91% visible
Pressure 30.24 in
Visibility 6.0 miles
Clouds Mostly Cloudy 600 ft
Dew Point 54 °F
Humidity 95%
Rainfall 0.36 in
Snow Depth Not available.
UV 0 out of 12
Pollen 5.70 out of 12
Air Quality Not available.
Flu Activity Sporadic
METAR KFIG 070254Z AUTO 08006KT 6SM BR BKN006 13/12 A3024 RMK AO2 SLP238 T01330122 52008

More Conditions Fewer Conditions

Pressure 30.24 in
Visibility 6.0 miles
Clouds Mostly Cloudy 600 ft
Dew Point 54 °F
Humidity 95%
Rainfall 0.36 in
Snow Depth Not available.
UV 0 out of 12
Pollen 5.70 out of 12
Air Quality Not available.
Flu Activity Sporadic
METAR KFIG 070254Z AUTO 08006KT 6SM BR BKN006 13/12 A3024 RMK AO2 SLP238 T01330122 52008

More Conditions Fewer Conditions

10-Day Weather Forecast

Almanac

Astronomy

May. 06, 2015 Rise Set
Actual Time
Civil Twilight
Nautical Twilight
Astronomical Twilight
Moon
Length of Visible Light
Length of Day
Tomorrow will be .
, % of the Moon is Illuminated

Today's Extremes

State Highs State Lows

Community

WunderPhotos

Upload Photos

1,819,097 photos uploaded!

WunderBlogs® & News

Nearby

Air Quality

  Air Quality AQ Index Pollutant
Not available.

Snow Depth

Station Depth Elevation

Earthquake Activity

City Distance Mag. Time & Date
Minimum magnitude displayed is 2.5.

Coastal Water Temperatures

Place Temperature

Stations

Nearby Weather Stations

Station Location Temp. Windchill Dew Point Humidity Wind Precip. Elev Updated Type